Time;durP1;ratioP1;P1;durP2;ratioP2;P2;SDS_P1;SDS_P2;PMS_P1;PMS_P2;Temp;Humidity;BMP_temperature;BMP_pressure;BME280_temperature;BME280_humidity;BME280_pressure;Samples;Min_cycle;Max_cycle;Signal;HPM_P1;HPM_P2
2022/03/11 00:02:01;;;;;;;145.53;49.17;;;;;;;1.22;62.46;100430.91;5111701;28;20552;-81
2022/03/11 00:04:28;;;;;;;108.63;38.57;;;;;;;1.20;63.09;100430.00;5111357;28;20190;-80
2022/03/11 00:06:55;;;;;;;43.43;18.17;;;;;;;1.28;62.87;100426.78;5111448;28;20664;-79
2022/03/11 00:09:23;;;;;;;19.73;10.97;;;;;;;1.08;63.06;100399.91;5111313;28;20195;-80
2022/03/11 00:11:50;;;;;;;14.03;8.93;;;;;;;1.08;63.68;100402.47;5111438;28;20201;-80
2022/03/11 00:14:18;;;;;;;15.07;8.27;;;;;;;1.08;64.56;100438.25;5111706;28;20218;-81
2022/03/11 00:16:45;;;;;;;14.70;8.67;;;;;;;1.03;65.29;100433.03;5111129;28;20732;-80
2022/03/11 00:19:12;;;;;;;15.63;8.70;;;;;;;0.92;66.24;100434.44;5111335;28;20190;-81
2022/03/11 00:21:38;;;;;;;12.77;8.73;;;;;;;0.73;67.71;100435.69;5111440;28;20757;-80
2022/03/11 00:24:06;;;;;;;13.37;9.10;;;;;;;0.68;68.23;100432.16;5111493;28;20199;-81
2022/03/11 00:26:35;;;;;;;15.57;8.73;;;;;;;0.66;69.83;100433.81;5111104;28;20204;-80
2022/03/11 00:29:02;;;;;;;11.97;8.77;;;;;;;0.30;70.98;100384.34;5111248;28;20256;-81
2022/03/11 00:31:29;;;;;;;15.33;9.13;;;;;;;0.69;71.53;100426.22;5111110;28;20197;-81
2022/03/11 00:33:56;;;;;;;12.23;9.27;;;;;;;0.47;72.27;100426.50;5111237;28;20761;-81
2022/03/11 00:36:23;;;;;;;12.73;9.13;;;;;;;0.15;73.84;100383.94;5111224;28;20195;-82
2022/03/11 00:38:50;;;;;;;14.27;9.93;;;;;;;0.58;74.05;100430.19;5111260;28;20199;-81
2022/03/11 00:41:17;;;;;;;28.00;11.93;;;;;;;0.58;73.16;100425.06;5111386;28;20654;-82
2022/03/11 00:43:46;;;;;;;71.50;21.70;;;;;;;0.78;72.39;100427.28;5111266;28;20213;-81
2022/03/11 00:46:12;;;;;;;18.13;10.60;;;;;;;0.53;71.45;100401.13;5111375;28;20194;-81
2022/03/11 00:48:39;;;;;;;13.20;8.17;;;;;;;0.33;69.63;100386.97;5111056;28;20623;-82
2022/03/11 00:51:06;;;;;;;15.00;8.43;;;;;;;0.54;70.37;100414.75;5111095;28;20286;-82
2022/03/11 00:53:33;;;;;;;22.93;10.77;;;;;;;0.44;71.02;100423.88;5111447;28;20605;-82
2022/03/11 00:56:00;;;;;;;16.03;9.67;;;;;;;0.33;71.73;100402.31;5111026;28;20285;-83
2022/03/11 00:58:27;;;;;;;26.23;12.10;;;;;;;0.45;72.34;100415.41;5114292;28;20186;-82
2022/03/11 01:00:55;;;;;;;19.50;10.13;;;;;;;0.53;71.04;100431.78;5115026;28;20197;-82
2022/03/11 01:03:22;;;;;;;30.07;12.50;;;;;;;0.51;71.73;100428.31;5115291;28;20198;-81
2022/03/11 01:05:49;;;;;;;22.47;10.97;;;;;;;0.32;70.78;100377.59;5114892;28;20191;-81
2022/03/11 01:08:19;;;;;;;18.37;9.83;;;;;;;0.42;71.17;100399.13;5115045;28;20201;-82
2022/03/11 01:10:46;;;;;;;27.40;11.40;;;;;;;0.68;70.48;100434.69;5115357;28;20654;-82
2022/03/11 01:13:13;;;;;;;55.03;17.80;;;;;;;0.65;68.45;100438.91;5114958;28;20203;-82
2022/03/11 01:15:40;;;;;;;48.07;17.63;;;;;;;0.70;68.97;100433.06;5114828;28;20198;-81
2022/03/11 01:18:08;;;;;;;24.90;10.80;;;;;;;0.57;67.63;100438.66;5114938;28;20694;-81
2022/03/11 01:20:35;;;;;;;44.47;16.03;;;;;;;0.63;67.64;100438.84;5114784;28;20571;-81
2022/03/11 01:23:04;;;;;;;50.03;17.73;;;;;;;0.65;67.99;100434.66;5114778;28;20197;-81
2022/03/11 01:25:31;;;;;;;154.67;42.03;;;;;;;0.66;68.70;100438.06;5114283;28;20290;-81
2022/03/11 01:27:58;;;;;;;36.10;14.80;;;;;;;0.71;67.42;100441.59;5106542;28;20232;-81
2022/03/11 01:30:25;;;;;;;12.67;7.27;;;;;;;0.51;67.62;100441.09;5114416;28;20200;-81
2022/03/11 01:32:53;;;;;;;23.20;10.57;;;;;;;0.37;69.18;100432.19;5114556;28;20198;-83
2022/03/11 01:35:24;;;;;;;34.77;14.57;;;;;;;0.25;71.77;100437.81;5114674;28;20223;-82
2022/03/11 01:37:51;;;;;;;14.73;7.93;;;;;;;0.16;72.41;100426.50;5114504;28;20197;-82
2022/03/11 01:40:18;;;;;;;20.23;8.80;;;;;;;0.23;73.91;100442.00;5114039;28;20193;-82
2022/03/11 01:42:45;;;;;;;56.77;18.97;;;;;;;0.13;75.52;100449.38;5114202;28;20197;-82
2022/03/11 01:45:12;;;;;;;91.73;27.43;;;;;;;0.06;78.63;100435.59;5114508;28;20580;-82
2022/03/11 01:47:39;;;;;;;20.47;9.40;;;;;;;-0.09;80.44;100441.13;5114007;28;20226;-82
2022/03/11 01:50:07;;;;;;;28.93;11.67;;;;;;;-0.05;83.05;100442.94;5114086;28;20205;-82
2022/03/11 01:52:37;;;;;;;52.70;18.20;;;;;;;-0.13;83.38;100446.97;5114421;28;20233;-82
2022/03/11 01:55:05;;;;;;;51.10;18.07;;;;;;;-0.12;83.92;100423.19;5113789;28;20225;-82
2022/03/11 01:57:35;;;;;;;28.70;11.80;;;;;;;-0.07;83.82;100442.03;5113866;28;20202;-82
2022/03/11 02:00:03;;;;;;;27.43;11.57;;;;;;;-0.07;84.39;100446.28;5113847;28;20208;-82
2022/03/11 02:02:30;;;;;;;15.00;7.97;;;;;;;-0.09;83.86;100443.69;5113840;28;20611;-82
2022/03/11 02:04:57;;;;;;;75.80;20.87;;;;;;;-0.24;83.80;100448.34;5114046;28;20193;-82
2022/03/11 02:07:24;;;;;;;21.77;9.23;;;;;;;-0.20;84.57;100445.06;5113602;28;20283;-83
2022/03/11 02:09:54;;;;;;;14.77;7.90;;;;;;;-0.38;84.65;100452.16;5112658;28;20205;-82
2022/03/11 02:12:32;;;;;;;19.20;9.47;;;;;;;-0.48;86.05;100443.38;5113827;28;20607;-82
2022/03/11 02:15:01;;;;;;;22.23;10.53;;;;;;;-0.48;87.35;100445.06;5113972;28;20281;-82
2022/03/11 02:17:28;;;;;;;21.47;10.80;;;;;;;-0.55;86.13;100440.59;5113850;28;20206;-82
2022/03/11 02:19:55;;;;;;;28.30;12.53;;;;;;;-0.75;85.81;100397.50;5113256;28;20202;-81
2022/03/11 02:22:24;;;;;;;28.63;13.07;;;;;;;-0.38;86.75;100439.41;5113293;28;20203;-80
2022/03/11 02:24:53;;;;;;;38.77;16.93;;;;;;;-0.35;85.67;100449.72;5113420;28;20584;-80
2022/03/11 02:27:20;;;;;;;21.97;10.87;;;;;;;-0.66;84.97;100380.75;5113389;28;20204;-77
2022/03/11 02:29:47;;;;;;;52.83;19.07;;;;;;;-0.29;84.04;100449.88;5112979;28;20203;-76
2022/03/11 02:32:14;;;;;;;14.97;8.63;;;;;;;-0.71;83.48;100392.50;5112847;28;20579;-81
2022/03/11 02:34:41;;;;;;;20.70;10.23;;;;;;;-0.36;83.21;100458.19;5113517;28;20699;-83
2022/03/11 02:37:09;;;;;;;36.27;15.23;;;;;;;-0.57;84.66;100437.16;5113102;28;20209;-82
2022/03/11 02:39:36;;;;;;;41.20;15.57;;;;;;;-0.31;84.85;100464.28;5113177;28;20597;-81
2022/03/11 02:42:05;;;;;;;29.33;13.10;;;;;;;-0.31;85.18;100469.38;5113464;28;20202;-81
2022/03/11 02:44:31;;;;;;;48.37;18.53;;;;;;;-0.42;82.05;100460.53;5112985;28;20384;-81
2022/03/11 02:47:00;;;;;;;31.43;13.67;;;;;;;-0.40;81.43;100425.75;5104415;28;20677;-81
2022/03/11 02:49:27;;;;;;;36.10;15.33;;;;;;;-0.13;78.82;100471.63;5112981;28;20205;-81
2022/03/11 02:51:56;;;;;;;30.30;12.20;;;;;;;-0.13;77.94;100471.63;5112931;28;20197;-82
2022/03/11 02:54:24;;;;;;;21.20;8.47;;;;;;;-0.11;76.05;100468.28;5112655;28;20225;-82
2022/03/11 02:56:51;;;;;;;23.30;9.03;;;;;;;-0.13;75.13;100469.94;5112949;28;20567;-82
2022/03/11 02:59:19;;;;;;;11.70;6.70;;;;;;;-0.14;72.09;100470.75;5112796;28;20198;-82
2022/03/11 03:01:46;;;;;;;26.63;11.80;;;;;;;-0.23;73.35;100465.41;5112863;28;20204;-82
2022/03/11 03:04:13;;;;;;;83.40;26.13;;;;;;;-0.18;72.25;100466.38;5112793;28;20684;-82
2022/03/11 03:06:40;;;;;;;69.60;24.90;;;;;;;-0.16;70.54;100443.47;5112247;28;20261;-82
2022/03/11 03:09:07;;;;;;;26.13;10.43;;;;;;;-0.17;70.18;100469.78;5112758;28;20205;-82
2022/03/11 03:11:34;;;;;;;31.77;13.47;;;;;;;-0.17;64.76;100473.22;5112351;28;20198;-83
2022/03/11 03:14:01;;;;;;;36.87;15.60;;;;;;;-0.29;66.20;100475.41;5112001;28;20219;-82
2022/03/11 03:16:32;;;;;;;17.10;9.07;;;;;;;-0.35;67.78;100474.38;5112245;28;20198;-82
2022/03/11 03:18:59;;;;;;;25.80;11.67;;;;;;;-0.29;67.92;100475.41;5112169;28;20198;-80
2022/03/11 03:21:27;;;;;;;14.77;8.27;;;;;;;-0.23;67.28;100470.50;5111864;28;20197;-80
2022/03/11 03:23:54;;;;;;;55.70;22.37;;;;;;;-0.28;68.39;100476.28;5112141;28;20200;-81
2022/03/11 03:26:21;;;;;;;35.37;14.30;;;;;;;-0.41;68.20;100437.63;5112166;28;20204;-81
2022/03/11 03:28:48;;;;;;;24.80;11.80;;;;;;;-0.14;66.78;100477.56;5112153;28;20198;-80
2022/03/11 03:31:17;;;;;;;32.27;15.27;;;;;;;-0.28;68.25;100483.91;5112280;28;20205;-82
2022/03/11 03:33:45;;;;;;;36.17;15.13;;;;;;;-0.26;67.86;100480.59;5112299;28;20244;-81
2022/03/11 03:36:12;;;;;;;23.27;11.10;;;;;;;-0.23;68.13;100475.59;5112208;28;20200;-81
2022/03/11 03:38:39;;;;;;;9.90;6.87;;;;;;;-0.23;67.09;100484.94;5112121;28;20201;-82
2022/03/11 03:41:06;;;;;;;19.67;9.73;;;;;;;-0.18;64.66;100478.28;5112177;28;20233;-81
2022/03/11 03:43:33;;;;;;;30.83;13.10;;;;;;;-0.20;61.70;100488.41;5111967;28;20196;-82
2022/03/11 03:46:00;;;;;;;21.07;10.10;;;;;;;-0.20;60.40;100492.66;5112124;28;20194;-82
2022/03/11 03:48:27;;;;;;;17.67;9.40;;;;;;;-0.18;59.19;100494.44;5111660;28;20231;-82
2022/03/11 03:50:55;;;;;;;26.80;12.77;;;;;;;-0.32;58.75;100490.59;5112239;28;20569;-82
2022/03/11 03:53:23;;;;;;;24.97;12.10;;;;;;;-0.40;59.85;100476.75;5111772;28;20197;-82
2022/03/11 03:55:50;;;;;;;31.27;11.97;;;;;;;-0.47;60.79;100449.34;5111881;28;20330;-81
2022/03/11 03:58:17;;;;;;;39.17;16.50;;;;;;;-0.22;60.86;100487.50;5112116;28;20679;-80
2022/03/11 04:00:44;;;;;;;36.00;14.70;;;;;;;-0.20;59.56;100485.00;5107847;28;20194;-81
2022/03/11 04:03:10;;;;;;;17.57;9.40;;;;;;;-0.20;60.78;100490.97;5111684;28;20195;-79
2022/03/11 04:05:38;;;;;;;22.93;10.27;;;;;;;-0.32;60.60;100495.69;5109715;27;20230;-78
2022/03/11 04:08:07;;;;;;;38.60;16.63;;;;;;;-0.46;60.65;100458.75;5120338;27;20203;-78
2022/03/11 04:10:34;;;;;;;32.87;14.37;;;;;;;-0.10;59.96;100498.06;5111777;27;20195;-78
2022/03/11 04:13:00;;;;;;;18.67;8.40;;;;;;;-0.42;58.81;100453.75;5110524;27;20196;-77
2022/03/11 04:15:28;;;;;;;8.30;5.53;;;;;;;-0.20;59.56;100503.72;5103020;27;20219;-78
2022/03/11 04:17:54;;;;;;;11.37;6.10;;;;;;;-0.19;60.62;100513.13;5103646;28;20194;-78
2022/03/11 04:20:21;;;;;;;10.10;6.73;;;;;;;-0.20;61.62;100513.06;5110304;28;20197;-78
2022/03/11 04:22:48;;;;;;;20.73;9.53;;;;;;;-0.29;62.53;100518.75;5103449;27;20207;-78
2022/03/11 04:25:17;;;;;;;20.60;9.90;;;;;;;-0.38;63.14;100511.69;5107139;28;20197;-78
2022/03/11 04:27:44;;;;;;;17.07;9.00;;;;;;;-0.37;67.50;100517.66;5102471;28;20212;-78
2022/03/11 04:30:11;;;;;;;9.23;6.23;;;;;;;-0.50;71.47;100501.13;5110985;28;20201;-80
2022/03/11 04:32:38;;;;;;;8.33;6.93;;;;;;;-0.41;72.91;100516.69;5113254;27;20201;-79
2022/03/11 04:35:05;;;;;;;13.80;8.20;;;;;;;-0.48;73.76;100516.47;5112402;28;20207;-80
2022/03/11 04:37:32;;;;;;;8.00;6.90;;;;;;;-0.50;75.99;100520.66;5104812;28;20563;-80
2022/03/11 04:39:59;;;;;;;7.77;6.83;;;;;;;-0.80;79.20;100487.41;5114399;28;20196;-80
2022/03/11 04:42:28;;;;;;;10.70;7.23;;;;;;;-0.86;79.56;100482.97;5106346;28;20196;-84
2022/03/11 04:44:55;;;;;;;11.87;6.87;;;;;;;-0.51;77.78;100519.78;5108304;28;20206;-81
2022/03/11 04:47:22;;;;;;;31.60;14.40;;;;;;;-0.44;76.44;100526.78;5106820;28;20227;-82
2022/03/11 04:49:49;;;;;;;22.10;13.87;;;;;;;-0.61;75.69;100478.66;5100648;28;20227;-79
2022/03/11 04:52:16;;;;;;;9.27;6.93;;;;;;;-0.63;74.12;100480.28;5108506;28;20217;-80
2022/03/11 04:54:43;;;;;;;8.17;7.10;;;;;;;-0.83;74.04;100434.66;5103841;28;20342;-82
2022/03/11 04:57:10;;;;;;;22.47;12.67;;;;;;;-0.62;74.52;100484.56;5111445;28;20708;-83
2022/03/11 04:59:38;;;;;;;9.53;6.90;;;;;;;-0.38;74.02;100521.03;5111429;28;20238;-82
2022/03/11 05:02:05;;;;;;;8.70;5.87;;;;;;;-0.30;73.56;100517.03;5112059;28;20253;-83
2022/03/11 05:04:32;;;;;;;9.40;6.20;;;;;;;-0.45;73.12;100498.69;5105993;28;20218;-80
2022/03/11 05:06:59;;;;;;;9.07;6.27;;;;;;;-0.25;72.25;100524.84;5102664;28;20223;-81
2022/03/11 05:09:28;;;;;;;10.30;6.93;;;;;;;-0.24;72.51;100524.88;5115629;27;20248;-77
2022/03/11 05:11:54;;;;;;;15.53;6.63;;;;;;;-0.22;72.18;100530.88;5134662;27;20225;-82
2022/03/11 05:14:21;;;;;;;9.30;6.67;;;;;;;-0.31;71.04;100532.28;5134056;27;20669;-77
2022/03/11 05:16:50;;;;;;;19.80;10.43;;;;;;;-0.49;71.59;100530.03;5120013;27;20226;-81
2022/03/11 05:19:17;;;;;;;10.50;7.07;;;;;;;-0.41;72.86;100546.44;5112950;28;20228;-81
2022/03/11 05:21:43;;;;;;;7.67;6.80;;;;;;;-0.58;74.80;100525.53;5111408;28;20251;-82
2022/03/11 05:24:10;;;;;;;10.87;7.97;;;;;;;-0.66;73.45;100503.13;5103583;28;20617;-81
2022/03/11 05:26:37;;;;;;;11.17;7.50;;;;;;;-0.86;74.24;100466.81;5100348;28;20216;-81
2022/03/11 05:29:04;;;;;;;12.00;8.73;;;;;;;-0.41;74.92;100547.31;5102327;28;20213;-82
2022/03/11 05:31:31;;;;;;;29.60;16.50;;;;;;;-0.44;75.05;100551.44;5098346;28;20223;-81
2022/03/11 05:33:59;;;;;;;18.37;12.33;;;;;;;-0.66;75.21;100503.13;5095246;28;20228;-81
2022/03/11 05:36:26;;;;;;;11.73;8.50;;;;;;;-0.56;75.56;100553.59;5106733;28;20221;-81
2022/03/11 05:38:53;;;;;;;15.63;9.40;;;;;;;-0.57;75.12;100555.31;5098543;28;20722;-82
2022/03/11 05:41:20;;;;;;;14.43;8.93;;;;;;;-0.67;75.57;100547.28;5103621;28;20215;-82
2022/03/11 05:43:50;;;;;;;14.97;9.93;;;;;;;-0.53;75.97;100556.25;5100974;28;20301;-82
2022/03/11 05:46:17;;;;;;;12.07;8.43;;;;;;;-0.65;74.80;100548.19;5102108;28;20233;-82
2022/03/11 05:48:44;;;;;;;15.83;9.87;;;;;;;-0.71;75.71;100555.66;5100671;28;20240;-83
2022/03/11 05:51:12;;;;;;;41.43;17.93;;;;;;;-0.68;77.57;100550.66;5097401;28;20309;-83
2022/03/11 05:53:39;;;;;;;266.90;76.67;;;;;;;-0.62;78.51;100555.94;5102961;28;20283;-82
2022/03/11 05:56:06;;;;;;;338.20;91.23;;;;;;;-0.62;79.81;100553.41;5101192;28;20221;-82
2022/03/11 05:58:33;;;;;;;42.07;17.13;;;;;;;-0.61;79.80;100553.47;5100831;28;20188;-82
2022/03/11 06:01:00;;;;;;;19.27;11.23;;;;;;;-1.06;79.69;100491.66;5106442;28;20194;-82
2022/03/11 06:03:27;;;;;;;15.83;9.93;;;;;;;-0.70;81.41;100565.03;5101466;28;20226;-82
2022/03/11 06:05:54;;;;;;;9.87;8.13;;;;;;;-0.82;82.23;100556.19;5105546;28;20187;-83
2022/03/11 06:08:22;;;;;;;15.60;11.50;;;;;;;-0.92;81.41;100527.78;5108913;28;20277;-82
2022/03/11 06:10:49;;;;;;;19.20;12.27;;;;;;;-0.60;81.90;100561.97;5111086;28;20692;-83
2022/03/11 06:13:16;;;;;;;19.40;12.43;;;;;;;-0.49;77.41;100566.59;5112917;28;20202;-83
2022/03/11 06:15:44;;;;;;;17.83;10.80;;;;;;;-0.50;77.39;100569.09;5112982;28;20218;-84
2022/03/11 06:18:13;;;;;;;15.77;8.07;;;;;;;-0.59;77.75;100563.72;5113271;28;20225;-83
2022/03/11 06:20:40;;;;;;;6.93;6.23;;;;;;;-0.49;78.87;100578.50;5112584;28;20286;-82
2022/03/11 06:23:07;;;;;;;32.87;14.90;;;;;;;-0.32;77.22;100574.78;5112719;28;20690;-81
2022/03/11 06:25:35;;;;;;;15.40;9.57;;;;;;;-0.27;75.88;100554.53;5112029;28;20196;-82
2022/03/11 06:28:02;;;;;;;18.30;10.07;;;;;;;-0.03;76.06;100576.56;5112745;28;20191;-83
2022/03/11 06:30:29;;;;;;;21.83;12.80;;;;;;;-0.18;75.56;100545.47;5110074;28;20199;-79
2022/03/11 06:32:56;;;;;;;9.90;7.40;;;;;;;-0.32;76.95;100587.53;5112920;28;20205;-78
2022/03/11 06:35:23;;;;;;;10.53;7.20;;;;;;;-0.11;76.03;100583.09;5113036;28;20607;-79
2022/03/11 06:37:51;;;;;;;10.50;7.70;;;;;;;-0.05;75.25;100585.88;5112916;28;20194;-77
2022/03/11 06:40:20;;;;;;;16.77;9.07;;;;;;;0.21;74.98;100591.75;5096715;28;20252;-79
2022/03/11 06:42:49;;;;;;;17.73;10.33;;;;;;;0.56;72.94;100556.16;5091667;28;20221;-78
2022/03/11 06:45:18;;;;;;;18.10;10.80;;;;;;;1.13;70.90;100597.75;5091531;28;20226;-78
2022/03/11 06:47:46;;;;;;;13.53;9.47;;;;;;;1.07;68.42;100559.25;5091093;28;20315;-78
2022/03/11 06:50:14;;;;;;;10.73;8.27;;;;;;;1.22;68.13;100603.13;5091776;28;20749;-80
2022/03/11 06:52:41;;;;;;;19.77;11.10;;;;;;;1.18;67.17;100601.28;5091521;28;20237;-79
2022/03/11 06:55:09;;;;;;;33.73;14.03;;;;;;;0.89;66.69;100564.75;5090865;28;20226;-80
2022/03/11 06:57:35;;;;;;;97.80;28.27;;;;;;;1.07;66.48;100602.72;5092244;28;20221;-79
2022/03/11 07:00:06;;;;;;;84.67;24.93;;;;;;;1.01;66.66;100600.88;5091420;28;20221;-80
2022/03/11 07:02:34;;;;;;;89.37;25.57;;;;;;;0.89;66.93;100590.31;5090977;28;20215;-80
2022/03/11 07:05:01;;;;;;;15.80;9.67;;;;;;;0.62;65.12;100562.31;5091408;28;20219;-82
2022/03/11 07:07:30;;;;;;;16.47;8.03;;;;;;;0.77;66.02;100594.22;5091127;28;20212;-82
2022/03/11 07:09:57;;;;;;;27.47;12.10;;;;;;;0.68;67.85;100595.66;5111288;28;20789;-81
2022/03/11 07:12:24;;;;;;;18.70;10.17;;;;;;;1.13;67.22;100600.28;5111586;28;20628;-80
2022/03/11 07:14:50;;;;;;;63.33;21.67;;;;;;;1.69;65.41;100599.16;5111302;28;20238;-85
2022/03/11 07:17:19;;;;;;;57.13;21.50;;;;;;;2.81;61.43;100599.94;5111273;28;20218;-81
2022/03/11 07:19:46;;;;;;;101.20;29.03;;;;;;;3.09;59.42;100604.75;5110973;28;20694;-80
2022/03/11 07:22:13;;;;;;;42.87;16.77;;;;;;;4.11;57.65;100596.19;5111315;28;20228;-80
2022/03/11 07:24:41;;;;;;;18.37;11.17;;;;;;;5.35;53.28;100595.97;5110871;28;20313;-81
2022/03/11 07:27:08;;;;;;;15.47;9.77;;;;;;;6.46;50.46;100595.09;5111263;28;20249;-81
2022/03/11 07:29:35;;;;;;;11.83;8.23;;;;;;;7.06;47.24;100587.59;5111139;28;20221;-80
2022/03/11 07:32:02;;;;;;;7.80;7.00;;;;;;;7.27;45.04;100592.81;5111886;28;20313;-81
2022/03/11 07:34:32;;;;;;;7.73;6.93;;;;;;;6.96;43.47;100585.84;5111566;28;20218;-81
2022/03/11 07:36:59;;;;;;;9.53;7.03;;;;;;;6.37;44.22;100584.75;5103197;28;20231;-81
2022/03/11 07:39:26;;;;;;;9.50;7.10;;;;;;;5.72;45.56;100555.97;5103162;28;20248;-82
2022/03/11 07:41:53;;;;;;;8.80;7.20;;;;;;;5.77;45.92;100591.19;5111535;28;20214;-82
2022/03/11 07:44:21;;;;;;;9.83;7.67;;;;;;;5.31;47.29;100532.44;5111568;28;20233;-82
2022/03/11 07:46:48;;;;;;;14.63;8.20;;;;;;;5.76;46.84;100573.13;5110899;28;20222;-80
2022/03/11 07:49:15;;;;;;;11.20;7.97;;;;;;;5.58;46.79;100594.47;5111316;28;20657;-79
2022/03/11 07:51:43;;;;;;;9.27;8.13;;;;;;;4.41;49.37;100590.59;5111940;28;21062;-78
2022/03/11 07:54:10;;;;;;;9.97;8.27;;;;;;;4.09;50.43;100595.31;5111829;28;20214;-76
2022/03/11 07:56:37;;;;;;;9.67;7.83;;;;;;;3.53;51.82;100581.59;5111291;28;20607;-77
2022/03/11 07:59:05;;;;;;;9.33;8.33;;;;;;;3.41;52.30;100589.94;5111644;28;20218;-80
2022/03/11 08:01:33;;;;;;;13.43;8.47;;;;;;;2.52;53.57;100572.03;5110884;28;20214;-78
2022/03/11 08:03:59;;;;;;;11.80;8.70;;;;;;;2.46;54.02;100560.78;5111509;28;20218;-78
2022/03/11 08:06:26;;;;;;;12.63;8.37;;;;;;;2.71;53.74;100604.00;5111439;28;20776;-78
2022/03/11 08:08:55;;;;;;;12.00;8.73;;;;;;;2.39;53.97;100600.78;5111853;28;20223;-78
2022/03/11 08:11:22;;;;;;;12.37;8.33;;;;;;;2.64;53.80;100606.41;5111406;28;20714;-75
2022/03/11 08:13:49;;;;;;;10.30;8.20;;;;;;;2.69;53.47;100605.69;5111312;28;20219;-76
2022/03/11 08:16:16;;;;;;;10.23;7.03;;;;;;;3.05;51.63;100604.69;5110644;28;20232;-75
2022/03/11 08:18:44;;;;;;;11.07;7.73;;;;;;;3.25;51.50;100599.09;5111059;28;20279;-75
2022/03/11 08:21:12;;;;;;;7.80;7.10;;;;;;;3.28;49.16;100593.97;5110905;28;20236;-77
2022/03/11 08:23:40;;;;;;;11.97;8.23;;;;;;;3.29;49.43;100585.47;5111192;28;20316;-77
2022/03/11 08:26:09;;;;;;;8.53;7.57;;;;;;;3.51;49.10;100558.44;5111043;28;20308;-78
2022/03/11 08:28:36;;;;;;;12.53;7.43;;;;;;;3.87;48.04;100567.56;5110973;28;20226;-84
2022/03/11 08:31:04;;;;;;;8.90;7.40;;;;;;;4.22;46.64;100602.34;5111034;28;20225;-79
2022/03/11 08:33:34;;;;;;;7.60;6.83;;;;;;;4.58;44.83;100593.41;5111163;28;20229;-81
2022/03/11 08:36:01;;;;;;;7.80;7.00;;;;;;;4.37;45.37;100588.84;5110938;28;20283;-82
2022/03/11 08:38:27;;;;;;;8.37;7.03;;;;;;;4.34;46.38;100596.53;5111316;28;20214;-83
2022/03/11 08:40:54;;;;;;;10.47;7.87;;;;;;;3.80;47.87;100563.19;5111306;28;20236;-81
2022/03/11 08:43:23;;;;;;;11.53;8.90;;;;;;;3.87;48.50;100598.38;5111363;28;20650;-83
2022/03/11 08:45:50;;;;;;;11.63;8.20;;;;;;;3.60;49.80;100553.50;5110691;28;20213;-79
2022/03/11 08:48:17;;;;;;;8.73;7.87;;;;;;;3.21;50.00;100535.72;5110600;28;20246;-81
2022/03/11 08:50:44;;;;;;;8.90;7.33;;;;;;;3.37;50.72;100593.31;5111161;28;20222;-79
2022/03/11 08:53:11;;;;;;;11.27;8.17;;;;;;;2.81;51.17;100592.25;5110988;28;20345;-81
2022/03/11 08:55:38;;;;;;;11.70;8.13;;;;;;;2.53;51.80;100578.00;5110834;28;20244;-80
2022/03/11 08:58:05;;;;;;;13.53;8.57;;;;;;;2.89;51.38;100591.56;5110834;28;20281;-80
2022/03/11 09:00:34;;;;;;;13.57;8.50;;;;;;;2.96;50.36;100528.41;5110945;28;20595;-80
2022/03/11 09:03:01;;;;;;;13.47;8.97;;;;;;;2.94;50.87;100558.31;5110789;28;20284;-80
2022/03/11 09:05:28;;;;;;;13.07;7.83;;;;;;;3.25;50.76;100572.56;5110856;28;20308;-80
2022/03/11 09:07:56;;;;;;;9.60;8.00;;;;;;;3.61;49.52;100585.16;5110613;28;20217;-80
2022/03/11 09:10:23;;;;;;;9.50;6.77;;;;;;;3.53;48.17;100589.28;5110652;28;20247;-80
2022/03/11 09:12:51;;;;;;;11.23;7.90;;;;;;;3.53;48.75;100579.00;5110868;28;20225;-77
2022/03/11 09:15:18;;;;;;;12.13;7.43;;;;;;;3.73;47.93;100562.22;5110257;28;20583;-78
2022/03/11 09:17:46;;;;;;;11.20;8.00;;;;;;;3.71;47.65;100547.66;5111262;28;20279;-77
2022/03/11 09:20:14;;;;;;;10.97;7.67;;;;;;;4.14;47.71;100572.25;5114521;28;20222;-80
2022/03/11 09:22:41;;;;;;;11.07;7.77;;;;;;;4.15;48.64;100572.28;5114642;28;20708;-81
2022/03/11 09:25:10;;;;;;;7.90;6.70;;;;;;;4.18;46.30;100572.31;5114681;28;20246;-81
2022/03/11 09:27:39;;;;;;;14.57;7.43;;;;;;;3.76;46.09;100526.31;5114433;28;20226;-77
2022/03/11 09:30:08;;;;;;;7.57;6.83;;;;;;;3.75;45.96;100549.41;5114435;28;20218;-81
2022/03/11 09:32:36;;;;;;;10.97;8.17;;;;;;;3.59;45.76;100541.50;5114017;28;20309;-75
2022/03/11 09:35:05;;;;;;;8.07;7.23;;;;;;;3.61;47.15;100562.88;5112448;28;20267;-78
2022/03/11 09:37:32;;;;;;;7.40;6.70;;;;;;;3.47;48.22;100572.09;5114629;28;20222;-80
2022/03/11 09:39:59;;;;;;;7.97;7.17;;;;;;;2.98;48.72;100507.94;5114013;28;20222;-80
2022/03/11 09:42:26;;;;;;;10.47;7.10;;;;;;;3.24;48.94;100530.66;5114519;28;20281;-79
2022/03/11 09:44:55;;;;;;;8.60;7.60;;;;;;;3.45;48.98;100563.50;5114126;28;20199;-78
2022/03/11 09:47:22;;;;;;;8.57;7.53;;;;;;;3.69;48.54;100555.31;5114007;28;20225;-79
2022/03/11 09:49:51;;;;;;;8.80;6.80;;;;;;;3.84;47.21;100557.25;5114224;28;20199;-78
2022/03/11 09:52:20;;;;;;;6.67;6.07;;;;;;;3.85;47.26;100554.69;5114584;28;20715;-80
2022/03/11 09:54:48;;;;;;;7.43;6.73;;;;;;;3.94;46.92;100543.72;5114260;28;20677;-80
2022/03/11 09:57:19;;;;;;;10.47;7.50;;;;;;;3.98;47.47;100548.91;5113951;28;20611;-79
2022/03/11 09:59:46;;;;;;;7.40;6.63;;;;;;;4.08;45.33;100543.88;5114148;28;20194;-79
2022/03/11 10:02:14;;;;;;;7.07;6.47;;;;;;;4.11;45.87;100547.38;5113705;28;20226;-81
2022/03/11 10:04:50;;;;;;;6.87;6.17;;;;;;;3.28;45.82;100491.34;5113925;28;20670;-81
2022/03/11 10:07:26;;;;;;;9.23;7.03;;;;;;;3.67;45.92;100540.72;5113762;28;20193;-80
2022/03/11 10:09:54;;;;;;;11.27;8.80;;;;;;;3.59;48.14;100526.09;5114146;28;20303;-79
2022/03/11 10:12:23;;;;;;;16.77;8.83;;;;;;;3.89;47.11;100537.66;5113848;28;20196;-80
2022/03/11 10:15:00;;;;;;;8.43;7.27;;;;;;;3.94;46.65;100538.59;5113714;28;20204;-80
2022/03/11 10:17:29;;;;;;;6.93;6.23;;;;;;;3.99;46.19;100521.50;5113712;28;20224;-80
2022/03/11 10:20:00;;;;;;;9.67;7.30;;;;;;;4.05;46.55;100513.91;5113779;28;20583;-76
2022/03/11 10:22:29;;;;;;;10.03;7.40;;;;;;;4.04;46.01;100509.63;5110995;28;20226;-79
2022/03/11 10:24:56;;;;;;;8.53;7.47;;;;;;;4.25;45.96;100520.16;5113419;28;20198;-78
2022/03/11 10:27:24;;;;;;;10.93;8.23;;;;;;;4.38;46.49;100513.47;5113422;28;20186;-80
2022/03/11 10:29:52;;;;;;;8.47;6.10;;;;;;;4.35;44.19;100524.56;5112053;28;20195;-78
2022/03/11 10:32:25;;;;;;;8.30;6.07;;;;;;;4.15;43.40;100489.19;5113133;28;20199;-80
2022/03/11 10:34:52;;;;;;;11.37;8.53;;;;;;;4.28;44.30;100517.66;5112825;28;20203;-80
2022/03/11 10:37:19;;;;;;;6.47;5.97;;;;;;;4.08;44.41;100513.94;5107066;28;20215;-79
2022/03/11 10:39:48;;;;;;;8.60;7.17;;;;;;;3.93;44.87;100496.63;5106115;28;20268;-80
2022/03/11 10:42:22;;;;;;;11.53;8.77;;;;;;;3.79;46.10;100510.09;5089245;28;20617;-81
2022/03/11 10:44:59;;;;;;;13.87;9.43;;;;;;;3.53;48.87;100505.44;5113280;28;20218;-80
2022/03/11 10:47:27;;;;;;;15.33;9.83;;;;;;;3.18;52.00;100462.97;5113158;28;20228;-81
2022/03/11 10:49:56;;;;;;;13.93;8.67;;;;;;;3.38;52.29;100459.03;5113162;28;20678;-80
2022/03/11 10:52:30;;;;;;;9.50;8.00;;;;;;;3.43;52.42;100444.56;5110071;28;20570;-80
2022/03/11 10:54:59;;;;;;;8.43;7.47;;;;;;;3.90;50.89;100480.31;5112854;28;20193;-80
2022/03/11 10:57:37;;;;;;;8.83;7.77;;;;;;;4.02;48.96;100483.03;5113214;28;20698;-81
2022/03/11 11:00:23;;;;;;;9.63;6.30;;;;;;;3.92;46.72;100478.63;5112937;28;20582;-81
2022/03/11 11:02:51;;;;;;;9.37;6.80;;;;;;;4.37;46.04;100475.75;5111268;28;20187;-80
2022/03/11 11:05:19;;;;;;;7.17;6.47;;;;;;;4.42;44.42;100473.22;5107639;28;20194;-80
2022/03/11 11:07:46;;;;;;;7.93;6.27;;;;;;;4.21;44.11;100469.56;5104746;28;20645;-80
2022/03/11 11:10:16;;;;;;;6.73;6.13;;;;;;;3.94;42.66;100441.00;5112577;28;20195;-80
2022/03/11 11:12:44;;;;;;;8.77;7.00;;;;;;;3.59;43.65;100425.09;5112663;28;20230;-79
2022/03/11 11:15:12;;;;;;;10.43;7.97;;;;;;;3.39;43.50;100406.84;5112858;28;20658;-80
2022/03/11 11:17:40;;;;;;;10.87;7.73;;;;;;;3.61;44.36;100438.84;5112284;28;20680;-81
2022/03/11 11:20:17;;;;;;;12.67;8.10;;;;;;;3.96;44.28;100463.25;5112230;28;20281;-83
2022/03/11 11:22:45;;;;;;;15.37;8.20;;;;;;;3.89;43.83;100456.31;5112511;28;20214;-80
2022/03/11 11:25:13;;;;;;;7.93;7.10;;;;;;;4.16;43.75;100460.09;5112168;28;20198;-81